Terminal Aerodrome Forecast
Issued by NWS

Home | Current Version | Previous Version | Graphics & Text | Print | Product List | Glossary On
Versions: 1 2 3 4 5 6 7 8 9 10 11 12 13 14 15 16 17 18 19 20
000
FTUS43 KABR 232340
TAFMBG
TAF
KMBG 232340Z 2400/2424 10011KT P6SM SCT250
      TEMPO 2400/2401 BKN010
     FM240200 12018G25KT P6SM SCT150 WS020/15040KT
     FM240900 15015KT P6SM SCT250
     FM241400 17012KT P6SM BKN070
     FM241700 20014KT P6SM SCT045=

USA.gov is the U.S. government's official web portal to all federal, state and local government web resources and services.